Time;durP1;ratioP1;P1;durP2;ratioP2;P2;SDS_P1;SDS_P2;PMS_P1;PMS_P2;Temp;Humidity;BMP_temperature;BMP_pressure;BME280_temperature;BME280_humidity;BME280_pressure;Samples;Min_cycle;Max_cycle;Signal;HPM_P1;HPM_P2
2022/12/13 00:00:04;;;;;;;;;;;;;;;6.33;100.00;98869.72;295575;33;1359;-84
2022/12/13 00:00:17;;;;;;;;;;;;;;;6.33;100.00;98861.91;292029;33;4778;-84
2022/12/13 00:00:27;;;;;;;;;;;;;;;6.34;100.00;98868.81;290540;33;5737;-84
2022/12/13 00:00:37;;;;;;;;;;;;;;;6.34;100.00;98871.41;289137;33;6223;-84
2022/12/13 00:00:47;;;;;;;;;;;;;;;6.33;100.00;98867.13;288719;34;1472;-85
2022/12/13 00:00:58;;;;;;;;;;;;;;;6.34;100.00;98867.97;286247;34;5843;-84
2022/12/13 00:01:09;;;;;;;;;;;;;;;6.33;100.00;98874.06;286910;33;5572;-84
2022/12/13 00:01:19;;;;;;;;;;;;;;;6.31;100.00;98876.72;290809;34;1238;-84
2022/12/13 00:01:30;;;;;;;;;;;;;;;6.31;100.00;98865.47;289838;33;5913;-84
2022/12/13 00:01:40;;;;;;;;;;;;;;;6.31;100.00;98866.31;287375;33;4674;-84
2022/12/13 00:01:51;;;;;;;;;;;;;;;6.31;100.00;98871.53;287942;34;1254;-84
2022/12/13 00:02:01;;;;;;;;;;;;;;;6.32;100.00;98868.03;285661;34;1479;-84
2022/12/13 00:03:42;;;;;;;;;;;;;;;6.36;100.00;98867.91;2507546;27;19935;-83
2022/12/13 00:03:52;;;;;;;;;;;;;;;6.34;100.00;98874.00;355151;27;1335;-83
2022/12/13 00:04:03;;;;;;;;;;;;;;;6.33;100.00;98874.91;352477;28;1197;-83
2022/12/13 00:04:14;;;;;;;;;;;;;;;6.33;100.00;98874.91;350289;28;1365;-83
2022/12/13 00:04:24;;;;;;;;;;;;;;;6.34;100.00;98879.22;350907;28;1476;-83
2022/12/13 00:04:34;;;;;;;;;;;;;;;6.34;100.00;98876.63;351204;28;1373;-83
2022/12/13 00:04:44;;;;;;;;;;;;;;;6.34;100.00;98875.75;350114;28;1263;-86
2022/12/13 00:04:54;;;;;;;;;;;;;;;6.33;100.00;98879.25;350983;28;1319;-84
2022/12/13 00:05:05;;;;;;;;;;;;;;;6.33;100.00;98880.13;351056;28;851;-84
2022/12/13 00:05:15;;;;;;;;;;;;;;;6.33;100.00;98884.47;350661;28;1158;-83
2022/12/13 00:05:25;;;;;;;;;;;;;;;6.32;100.00;98873.22;349392;28;1381;-84
2022/12/13 00:05:41;;;;;;;;;;;;;;;6.30;100.00;98877.63;350876;28;803;-84
2022/12/13 00:05:53;;;;;;;;;;;;;;;6.29;100.00;98882.88;351824;28;1320;-84
2022/12/13 00:06:04;;;;;;;;;;;;;;;6.27;100.00;98880.31;353599;28;1364;-84
2022/12/13 00:06:14;;;;;;;;;;;;;;;6.27;100.00;98879.47;351553;28;1224;-84
2022/12/13 00:06:25;;;;;;;;;;;;;;;6.26;100.00;98889.03;349745;28;1306;-83
2022/12/13 00:06:35;;;;;;;;;;;;;;;6.25;100.00;98882.13;350862;28;1281;-84
2022/12/13 00:06:46;;;;;;;;;;;;;;;6.26;100.00;98877.78;350374;28;1295;-84
2022/12/13 00:06:56;;;;;;;;;;;;;;;6.26;100.00;98885.56;347563;28;1204;-84
2022/12/13 00:07:06;;;;;;;;;;;;;;;6.25;100.00;98881.28;349198;28;842;-84
2022/12/13 00:07:17;;;;;;;;;;;;;;;6.27;100.00;98885.53;350968;28;1263;-84
2022/12/13 00:07:27;;;;;;;;;;;;;;;6.26;100.00;98891.63;351346;28;1035;-84
2022/12/13 00:07:37;;;;;;;;;;;;;;;6.25;100.00;98882.13;350592;28;3761;-84
2022/12/13 00:07:47;;;;;;;;;;;;;;;6.24;100.00;98883.03;348169;28;2968;-84
2022/12/13 00:07:58;;;;;;;;;;;;;;;6.23;100.00;98883.09;346681;28;1914;-84
2022/12/13 00:08:08;;;;;;;;;;;;;;;6.23;100.00;98888.28;346836;28;1050;-83
2022/12/13 00:08:18;;;;;;;;;;;;;;;6.23;100.00;98883.94;347379;28;1225;-84
2022/12/13 00:08:29;;;;;;;;;;;;;;;6.22;100.00;98887.44;348065;28;1309;-85
2022/12/13 00:08:40;;;;;;;;;;;;;;;6.22;100.00;98879.63;351016;28;1213;-83
2022/12/13 00:08:50;;;;;;;;;;;;;;;6.21;100.00;98883.13;351238;28;1457;-83
2022/12/13 00:09:01;;;;;;;;;;;;;;;6.22;100.00;98879.63;350101;28;1377;-83
2022/12/13 00:09:15;;;;;;;;;;;;;;;6.22;99.95;98887.44;346768;28;1243;-83
2022/12/13 00:09:25;;;;;;;;;;;;;;;6.23;100.00;98889.13;348031;28;1203;-83
2022/12/13 00:09:35;;;;;;;;;;;;;;;6.22;100.00;98883.97;350415;28;1325;-83
2022/12/13 00:09:45;;;;;;;;;;;;;;;6.21;100.00;98877.09;349673;28;1271;-83
2022/12/13 00:09:55;;;;;;;;;;;;;;;6.21;100.00;98880.53;349684;28;1311;-85
2022/12/13 00:10:06;;;;;;;;;;;;;;;6.20;100.00;98878.00;350719;28;1074;-84
2022/12/13 00:10:16;;;;;;;;;;;;;;;6.18;99.80;98883.25;350898;28;1376;-83
2022/12/13 00:10:26;;;;;;;;;;;;;;;6.18;99.30;98882.41;348199;28;789;-84
2022/12/13 00:10:37;;;;;;;;;;;;;;;6.15;99.52;98891.13;345420;28;1186;-84
2022/12/13 00:10:47;;;;;;;;;;;;;;;6.14;98.88;98889.44;346773;28;1369;-84
2022/12/13 00:11:01;;;;;;;;;;;;;;;6.14;99.02;98886.84;346506;28;1438;-84
2022/12/13 00:11:11;;;;;;;;;;;;;;;6.15;98.98;98880.75;345382;28;1347;-83
2022/12/13 00:11:22;;;;;;;;;;;;;;;6.12;98.68;98886.06;345897;28;1323;-84
2022/12/13 00:11:32;;;;;;;;;;;;;;;6.10;98.40;98877.47;342868;28;1349;-83
2022/12/13 00:11:43;;;;;;;;;;;;;;;6.10;98.32;98882.66;341456;29;890;-84
2022/12/13 00:11:53;;;;;;;;;;;;;;;6.10;98.02;98887.00;344794;28;1541;-84
2022/12/13 00:12:03;;;;;;;;;;;;;;;6.10;98.08;98882.66;343728;28;1347;-84
2022/12/13 00:12:14;;;;;;;;;;;;;;;6.11;97.96;98884.34;341448;29;1326;-84
2022/12/13 00:12:24;;;;;;;;;;;;;;;6.10;98.01;98882.66;340578;29;1996;-83
2022/12/13 00:12:34;;;;;;;;;;;;;;;6.11;97.91;98878.31;337873;29;2238;-84
2022/12/13 00:12:44;;;;;;;;;;;;;;;6.12;98.05;98886.06;339626;28;2862;-84
2022/12/13 00:12:55;;;;;;;;;;;;;;;6.12;98.01;98880.84;342488;28;1578;-84
2022/12/13 00:13:05;;;;;;;;;;;;;;;6.13;97.86;98885.16;338140;29;1344;-84
2022/12/13 00:13:15;;;;;;;;;;;;;;;6.15;97.67;98880.75;338467;29;3146;-84
2022/12/13 00:13:26;;;;;;;;;;;;;;;6.16;97.88;98879.00;337229;29;1189;-83
2022/12/13 00:13:36;;;;;;;;;;;;;;;6.16;97.60;98881.59;336417;29;1366;-83
2022/12/13 00:13:46;;;;;;;;;;;;;;;6.18;97.92;98883.25;332038;29;1617;-83
2022/12/13 00:13:57;;;;;;;;;;;;;;;6.18;97.53;98879.78;331622;29;1286;-84
2022/12/13 00:14:07;;;;;;;;;;;;;;;6.17;97.20;98884.16;326523;29;1760;-84
2022/12/13 00:14:17;;;;;;;;;;;;;;;6.17;96.92;98881.53;325853;29;1447;-83
2022/12/13 00:14:28;;;;;;;;;;;;;;;6.13;97.02;98882.56;327333;30;1383;-84
2022/12/13 00:14:38;;;;;;;;;;;;;;;6.15;96.84;98888.53;331829;29;1767;-84
2022/12/13 00:14:48;;;;;;;;;;;;;;;6.15;96.97;98883.34;333761;29;1620;-83
2022/12/13 00:14:59;;;;;;;;;;;;;;;6.13;97.28;98885.16;333792;29;1261;-83
2022/12/13 00:15:09;;;;;;;;;;;;;;;6.14;97.77;98889.44;331518;29;1310;-84
2022/12/13 00:15:19;;;;;;;;;;;;;;;6.12;97.79;98891.25;334091;29;1196;-84
2022/12/13 00:15:30;;;;;;;;;;;;;;;6.13;97.80;98890.34;333958;29;1682;-83
2022/12/13 00:15:40;;;;;;;;;;;;;;;6.14;97.40;98889.44;331106;29;1111;-83
2022/12/13 00:15:57;;;;;;;;;;;;;;;6.13;97.52;98892.94;331338;29;2722;-84
2022/12/13 00:16:10;;;;;;;;;;;;;;;6.14;96.76;98888.59;331269;29;2199;-84
2022/12/13 00:16:23;;;;;;;;;;;;;;;6.14;96.53;98889.44;330372;29;2205;-83
2022/12/13 00:16:33;;;;;;;;;;;;;;;6.13;96.31;98887.75;329013;29;2007;-83
2022/12/13 00:16:44;;;;;;;;;;;;;;;6.12;96.20;98891.25;327748;30;1315;-83
2022/12/13 00:16:55;;;;;;;;;;;;;;;6.11;96.30;98879.16;326197;30;1204;-84
2022/12/13 00:17:05;;;;;;;;;;;;;;;6.10;96.32;98887.84;324147;30;1819;-84
2022/12/13 00:17:15;;;;;;;;;;;;;;;6.10;95.79;98895.66;323854;30;1370;-84
2022/12/13 00:17:26;;;;;;;;;;;;;;;6.08;96.17;98892.25;326199;30;1314;-84
2022/12/13 00:17:36;;;;;;;;;;;;;;;6.07;95.76;98893.16;325531;30;2055;-83
2022/12/13 00:17:46;;;;;;;;;;;;;;;6.06;95.61;98891.50;326852;30;2061;-83
2022/12/13 00:17:56;;;;;;;;;;;;;;;6.07;95.00;98898.34;327113;30;1406;-83
2022/12/13 00:18:07;;;;;;;;;;;;;;;6.07;95.11;98892.31;320628;30;2887;-83
2022/12/13 00:18:17;;;;;;;;;;;;;;;6.06;94.71;98891.50;319957;30;3178;-83
2022/12/13 00:18:27;;;;;;;;;;;;;;;6.04;95.19;98890.69;322534;30;1342;-84
2022/12/13 00:18:37;;;;;;;;;;;;;;;6.05;95.23;98892.38;318741;30;3059;-84
2022/12/13 00:18:48;;;;;;;;;;;;;;;6.04;95.18;98898.47;317428;30;2970;-85
2022/12/13 00:18:59;;;;;;;;;;;;;;;6.06;94.65;98885.44;316505;31;1244;-84
2022/12/13 00:19:09;;;;;;;;;;;;;;;6.07;94.65;98893.16;316228;31;1212;-83
2022/12/13 00:19:20;;;;;;;;;;;;;;;6.09;95.04;98896.53;314632;31;2323;-83
2022/12/13 00:19:31;;;;;;;;;;;;;;;6.09;95.17;98895.69;312744;31;1711;-84
2022/12/13 00:19:41;;;;;;;;;;;;;;;6.08;94.39;98892.25;313550;31;1208;-85
2022/12/13 00:19:51;;;;;;;;;;;;;;;6.07;94.90;98898.34;312877;31;2993;-85
2022/12/13 00:20:02;;;;;;;;;;;;;;;6.06;94.29;98894.09;309454;31;3359;-86
2022/12/13 00:20:12;;;;;;;;;;;;;;;6.08;94.42;98897.44;306994;32;1227;-86
2022/12/13 00:20:22;;;;;;;;;;;;;;;6.08;94.43;98889.66;304374;32;4169;-85
2022/12/13 00:20:32;;;;;;;;;;;;;;;6.05;95.04;98879.41;305417;32;4882;-85
2022/12/13 00:20:43;;;;;;;;;;;;;;;6.01;94.44;98893.38;305866;32;1347;-85
2022/12/13 00:20:53;;;;;;;;;;;;;;;6.01;94.54;98890.78;305126;32;4062;-83
2022/12/13 00:21:07;;;;;;;;;;;;;;;6.00;93.82;98891.69;303731;32;4619;-85
2022/12/13 00:21:18;;;;;;;;;;;;;;;6.00;94.84;98889.94;303270;32;3323;-84
2022/12/13 00:21:29;;;;;;;;;;;;;;;6.03;94.55;98893.34;302822;32;1019;-84
2022/12/13 00:21:39;;;;;;;;;;;;;;;6.05;94.88;98894.97;295714;33;1225;-84
2022/12/13 00:21:49;;;;;;;;;;;;;;;6.05;94.90;98894.97;296333;33;3967;-83
2022/12/13 00:22:00;;;;;;;;;;;;;;;6.05;94.78;98884.59;295600;33;4363;-84
2022/12/13 00:22:10;;;;;;;;;;;;;;;6.03;94.59;98880.34;294717;33;1309;-83
2022/12/13 00:22:20;;;;;;;;;;;;;;;6.02;94.68;98886.44;292767;33;5380;-84
2022/12/13 00:22:30;;;;;;;;;;;;;;;5.99;94.36;98895.19;290754;33;7047;-85
2022/12/13 00:22:41;;;;;;;;;;;;;;;5.99;94.34;98888.25;286916;34;1313;-84
2022/12/13 00:22:51;;;;;;;;;;;;;;;6.00;94.42;98891.69;287956;34;7459;-85
2022/12/13 00:23:01;;;;;;;;;;;;;;;6.00;94.85;98896.88;286417;34;6768;-85
2022/12/13 00:23:11;;;;;;;;;;;;;;;6.00;94.86;98902.06;285621;34;1293;-85
2022/12/13 00:23:22;;;;;;;;;;;;;;;6.01;94.65;98893.38;280781;34;7562;-84
2022/12/13 00:23:32;;;;;;;;;;;;;;;6.01;94.43;98898.59;278618;35;5604;-84
2022/12/13 00:23:42;;;;;;;;;;;;;;;6.01;94.78;98895.97;281710;35;1230;-84
2022/12/13 00:23:53;;;;;;;;;;;;;;;6.02;95.04;98889.88;283720;34;4794;-83
2022/12/13 00:25:42;;;;;;;;;;;;;;;6.02;94.78;98908.06;2507364;27;19933;-83
2022/12/13 00:25:52;;;;;;;;;;;;;;;5.99;95.10;98906.44;355845;27;1212;-84
2022/12/13 00:26:03;;;;;;;;;;;;;;;6.00;95.04;98908.13;352442;28;1230;-83
2022/12/13 00:26:14;;;;;;;;;;;;;;;6.00;95.27;98902.06;349862;28;1274;-83
2022/12/13 00:26:26;;;;;;;;;;;;;;;5.98;95.29;98904.72;351245;28;1250;-84
2022/12/13 00:26:36;;;;;;;;;;;;;;;5.94;94.80;98903.13;350942;28;1317;-84
2022/12/13 00:26:46;;;;;;;;;;;;;;;5.92;95.12;98904.09;349413;28;1313;-84
2022/12/13 00:26:57;;;;;;;;;;;;;;;5.92;95.19;98906.69;349963;28;1309;-84
2022/12/13 00:27:07;;;;;;;;;;;;;;;5.94;94.88;98903.13;349441;28;1215;-85
2022/12/13 00:27:17;;;;;;;;;;;;;;;5.93;95.20;98905.78;348205;28;1205;-84
2022/12/13 00:27:27;;;;;;;;;;;;;;;5.95;95.84;98906.56;352448;28;1329;-84
2022/12/13 00:27:37;;;;;;;;;;;;;;;5.95;95.73;98901.38;349429;28;1302;-84
2022/12/13 00:27:48;;;;;;;;;;;;;;;5.95;95.25;98904.81;348212;28;1198;-84
2022/12/13 00:27:58;;;;;;;;;;;;;;;5.95;95.10;98909.16;349483;28;1215;-84
2022/12/13 00:28:08;;;;;;;;;;;;;;;5.94;95.30;98907.47;350776;28;1318;-84
2022/12/13 00:28:18;;;;;;;;;;;;;;;5.95;95.00;98911.78;352271;28;1238;-84
2022/12/13 00:28:29;;;;;;;;;;;;;;;5.95;95.43;98901.38;351734;28;1204;-83
2022/12/13 00:28:39;;;;;;;;;;;;;;;5.95;95.16;98901.38;351430;28;1328;-83
2022/12/13 00:28:50;;;;;;;;;;;;;;;5.93;94.58;98908.38;351041;28;1340;-83
2022/12/13 00:29:00;;;;;;;;;;;;;;;5.92;94.96;98914.47;350098;28;1273;-83
2022/12/13 00:29:11;;;;;;;;;;;;;;;5.92;94.75;98904.09;348125;28;1263;-84
2022/12/13 00:29:21;;;;;;;;;;;;;;;5.92;94.44;98914.47;350874;28;1228;-83
2022/12/13 00:29:31;;;;;;;;;;;;;;;5.90;94.12;98918.88;351281;28;1104;-83
2022/12/13 00:29:41;;;;;;;;;;;;;;;5.90;94.40;98905.88;349515;28;1301;-83
2022/12/13 00:29:52;;;;;;;;;;;;;;;5.89;94.30;98920.59;349560;28;1238;-83
2022/12/13 00:30:02;;;;;;;;;;;;;;;5.90;94.37;98911.06;348357;28;1201;-83
2022/12/13 00:30:12;;;;;;;;;;;;;;;5.92;94.37;98917.06;348223;28;1225;-83
2022/12/13 00:30:22;;;;;;;;;;;;;;;5.93;94.98;98916.16;349427;28;1344;-83
2022/12/13 00:30:33;;;;;;;;;;;;;;;5.91;94.88;98916.22;349423;28;1184;-83
2022/12/13 00:30:43;;;;;;;;;;;;;;;5.91;94.61;98907.56;350877;28;1301;-83
2022/12/13 00:30:56;;;;;;;;;;;;;;;5.90;94.70;98900.69;348088;28;1321;-83
2022/12/13 00:31:06;;;;;;;;;;;;;;;5.92;94.71;98909.28;348465;28;2942;-83
2022/12/13 00:31:17;;;;;;;;;;;;;;;5.91;94.32;98908.44;348362;28;1832;-83
2022/12/13 00:31:28;;;;;;;;;;;;;;;5.92;94.10;98914.47;349812;28;1649;-83
2022/12/13 00:31:38;;;;;;;;;;;;;;;5.95;94.64;98909.16;347167;28;3285;-85
2022/12/13 00:31:49;;;;;;;;;;;;;;;5.93;94.47;98913.56;346473;28;1238;-84
2022/12/13 00:31:59;;;;;;;;;;;;;;;5.92;94.61;98904.09;347003;28;1228;-84
2022/12/13 00:32:09;;;;;;;;;;;;;;;5.92;93.86;98910.13;347972;28;1304;-85
2022/12/13 00:32:19;;;;;;;;;;;;;;;5.92;94.44;98906.69;345683;28;1291;-84
2022/12/13 00:32:30;;;;;;;;;;;;;;;5.92;93.73;98904.09;345425;28;1212;-84
2022/12/13 00:32:40;;;;;;;;;;;;;;;5.92;94.03;98914.47;343995;28;1288;-84
2022/12/13 00:32:50;;;;;;;;;;;;;;;5.93;93.32;98913.56;341398;28;1208;-84
2022/12/13 00:33:00;;;;;;;;;;;;;;;5.91;93.22;98908.44;341743;28;1356;-84
2022/12/13 00:33:10;;;;;;;;;;;;;;;5.93;93.79;98910.97;342705;28;1249;-85
2022/12/13 00:33:21;;;;;;;;;;;;;;;5.92;93.75;98914.47;345827;28;1315;-85
2022/12/13 00:33:31;;;;;;;;;;;;;;;5.94;93.43;98912.66;341355;29;1249;-84
2022/12/13 00:33:41;;;;;;;;;;;;;;;5.93;93.91;98918.75;341527;29;1300;-84
2022/12/13 00:33:51;;;;;;;;;;;;;;;5.93;93.49;98909.22;343429;28;1265;-84
2022/12/13 00:34:02;;;;;;;;;;;;;;;5.94;93.86;98918.72;341805;28;1309;-84
2022/12/13 00:34:13;;;;;;;;;;;;;;;5.94;94.13;98908.31;340036;29;1303;-84
2022/12/13 00:34:23;;;;;;;;;;;;;;;5.95;93.78;98911.78;344213;28;1554;-85
2022/12/13 00:34:34;;;;;;;;;;;;;;;5.94;94.11;98904.88;343794;28;1272;-84
2022/12/13 00:34:44;;;;;;;;;;;;;;;5.92;93.81;98907.53;339289;29;1332;-84
2022/12/13 00:34:54;;;;;;;;;;;;;;;5.92;93.89;98911.88;341007;29;1294;-85
2022/12/13 00:35:05;;;;;;;;;;;;;;;5.93;93.53;98918.75;341347;29;1193;-84
2022/12/13 00:35:15;;;;;;;;;;;;;;;5.93;93.25;98910.97;341436;28;1202;-84
2022/12/13 00:35:25;;;;;;;;;;;;;;;5.90;93.46;98911.06;341281;28;1082;-84
2022/12/13 00:35:39;;;;;;;;;;;;;;;5.90;93.35;98905.88;343143;28;1342;-84
2022/12/13 00:35:49;;;;;;;;;;;;;;;5.89;92.97;98904.19;340098;28;1887;-84
2022/12/13 00:36:01;;;;;;;;;;;;;;;5.89;92.71;98909.38;336164;29;1200;-84
2022/12/13 00:36:12;;;;;;;;;;;;;;;5.89;93.15;98909.38;339038;29;1214;-84
2022/12/13 00:36:22;;;;;;;;;;;;;;;5.91;93.38;98913.63;341266;28;1838;-84
2022/12/13 00:36:32;;;;;;;;;;;;;;;5.92;93.15;98914.47;338436;29;1987;-84
2022/12/13 00:36:42;;;;;;;;;;;;;;;5.92;93.05;98904.09;335711;29;1291;-84
2022/12/13 00:36:55;;;;;;;;;;;;;;;5.91;93.00;98913.63;332092;29;1549;-84
2022/12/13 00:37:05;;;;;;;;;;;;;;;5.89;92.16;98906.78;332874;29;1354;-84
2022/12/13 00:37:15;;;;;;;;;;;;;;;5.89;92.39;98909.38;335516;29;1147;-84
2022/12/13 00:37:25;;;;;;;;;;;;;;;5.89;92.06;98911.97;334669;29;1215;-84
2022/12/13 00:37:36;;;;;;;;;;;;;;;5.88;92.16;98910.25;334310;29;1404;-84
2022/12/13 00:37:46;;;;;;;;;;;;;;;5.90;92.17;98913.66;334790;29;1280;-84
2022/12/13 00:37:56;;;;;;;;;;;;;;;5.90;92.24;98911.06;331099;29;2224;-83
2022/12/13 00:38:06;;;;;;;;;;;;;;;5.88;92.17;98907.66;330047;29;2311;-83
2022/12/13 00:38:17;;;;;;;;;;;;;;;5.88;91.72;98907.66;325734;29;2477;-84
2022/12/13 00:38:27;;;;;;;;;;;;;;;5.87;91.69;98911.13;327435;30;1342;-84
2022/12/13 00:38:37;;;;;;;;;;;;;;;5.88;91.75;98916.28;328377;29;2425;-84
2022/12/13 00:38:59;;;;;;;;;;;;;;;5.91;91.92;98910.16;327863;29;2390;-84
2022/12/13 00:39:11;;;;;;;;;;;;;;;5.92;91.48;98911.88;332066;29;1774;-84
2022/12/13 00:39:21;;;;;;;;;;;;;;;5.94;91.95;98917.88;332635;29;936;-84
2022/12/13 00:39:32;;;;;;;;;;;;;;;5.94;91.66;98908.31;329689;29;1816;-84
2022/12/13 00:39:42;;;;;;;;;;;;;;;5.93;92.03;98906.63;328891;30;1330;-84
2022/12/13 00:39:52;;;;;;;;;;;;;;;5.92;91.80;98910.13;327876;30;2164;-84
2022/12/13 00:40:02;;;;;;;;;;;;;;;5.92;91.99;98914.47;323491;30;2610;-84
2022/12/13 00:40:13;;;;;;;;;;;;;;;5.89;91.85;98910.22;326822;30;1348;-84
2022/12/13 00:40:23;;;;;;;;;;;;;;;5.90;91.46;98913.66;323490;30;3106;-84
2022/12/13 00:40:33;;;;;;;;;;;;;;;5.89;91.25;98915.41;327117;29;3562;-84
2022/12/13 00:40:43;;;;;;;;;;;;;;;5.90;91.67;98913.66;327052;30;1984;-84
2022/12/13 00:40:54;;;;;;;;;;;;;;;5.91;91.66;98917.97;324656;30;3362;-84
2022/12/13 00:41:10;;;;;;;;;;;;;;;5.91;91.73;98912.78;322682;30;2824;-84
2022/12/13 00:41:20;;;;;;;;;;;;;;;5.91;91.83;98916.22;323769;30;2210;-84
2022/12/13 00:41:31;;;;;;;;;;;;;;;5.92;91.92;98920.50;323695;30;1206;-84
2022/12/13 00:41:42;;;;;;;;;;;;;;;5.89;91.95;98909.38;319461;30;1285;-84
2022/12/13 00:41:52;;;;;;;;;;;;;;;5.89;92.24;98912.81;317426;30;3032;-84
2022/12/13 00:42:03;;;;;;;;;;;;;;;5.89;91.84;98909.38;314228;31;3429;-84
2022/12/13 00:42:13;;;;;;;;;;;;;;;5.88;91.93;98920.63;314584;31;1202;-84
2022/12/13 00:42:23;;;;;;;;;;;;;;;5.87;92.33;98911.13;313642;31;3313;-84
2022/12/13 00:42:34;;;;;;;;;;;;;;;5.87;92.17;98912.00;313348;31;4846;-84
2022/12/13 00:42:44;;;;;;;;;;;;;;;5.88;92.35;98918.03;309614;31;1268;-84
2022/12/13 00:42:54;;;;;;;;;;;;;;;5.90;92.30;98921.47;309395;31;5439;-84
2022/12/13 00:43:04;;;;;;;;;;;;;;;5.88;92.14;98908.50;307574;31;4514;-84
2022/12/13 00:43:14;;;;;;;;;;;;;;;5.86;92.37;98914.63;305225;32;1277;-84
2022/12/13 00:43:25;;;;;;;;;;;;;;;5.83;91.89;98917.34;303145;32;4013;-84
2022/12/13 00:43:35;;;;;;;;;;;;;;;5.83;91.69;98909.53;301835;32;3404;-84
2022/12/13 00:43:45;;;;;;;;;;;;;;;5.82;92.25;98910.44;299954;33;1243;-84
2022/12/13 00:43:56;;;;;;;;;;;;;;;5.83;92.14;98914.75;299092;32;3974;-84
2022/12/13 00:44:06;;;;;;;;;;;;;;;5.82;91.97;98913.03;299170;32;5409;-84
2022/12/13 00:44:18;;;;;;;;;;;;;;;5.82;92.20;98913.03;301382;32;1095;-84
2022/12/13 00:44:30;;;;;;;;;;;;;;;5.82;92.37;98918.22;293954;33;1919;-83
2022/12/13 00:44:40;;;;;;;;;;;;;;;5.82;92.15;98916.47;290377;33;5634;-83
2022/12/13 00:44:50;;;;;;;;;;;;;;;5.80;92.08;98915.69;291304;33;7574;-84
2022/12/13 00:45:00;;;;;;;;;;;;;;;5.82;92.54;98918.22;290287;34;1252;-84
2022/12/13 00:45:11;;;;;;;;;;;;;;;5.79;92.20;98913.13;285872;34;7552;-84
2022/12/13 00:45:21;;;;;;;;;;;;;;;5.80;92.19;98914.84;285560;34;7337;-85
2022/12/13 00:45:31;;;;;;;;;;;;;;;5.79;92.51;98918.31;287416;34;1196;-84
2022/12/13 00:45:42;;;;;;;;;;;;;;;5.77;92.30;98920.13;285296;34;1200;-86
2022/12/13 00:45:52;;;;;;;;;;;;;;;5.76;92.57;98915.84;282539;34;4071;-84
2022/12/13 00:46:02;;;;;;;;;;;;;;;5.76;92.30;98913.25;282189;34;5528;-84
2022/12/13 00:46:13;;;;;;;;;;;;;;;5.74;92.35;98915.03;282018;35;1231;-84
2022/12/13 00:46:24;;;;;;;;;;;;;;;5.73;92.35;98913.34;278955;35;7562;-84
2022/12/13 00:46:34;;;;;;;;;;;;;;;5.74;92.68;98922.81;276862;35;9920;-84
2022/12/13 00:46:44;;;;;;;;;;;;;;;5.74;92.41;98922.81;275874;36;1277;-84
2022/12/13 00:49:14;;;;;;;;;;;;;;;5.76;92.68;98921.88;2505545;27;19923;-83
2022/12/13 00:49:24;;;;;;;;;;;;;;;5.75;92.80;98916.72;354572;27;3598;-83
2022/12/13 00:49:35;;;;;;;;;;;;;;;5.74;93.39;98917.63;351115;28;2973;-84
2022/12/13 00:49:45;;;;;;;;;;;;;;;5.73;93.26;98918.53;351065;28;1669;-83
2022/12/13 00:49:55;;;;;;;;;;;;;;;5.72;93.52;98920.28;349445;28;1869;-83
2022/12/13 00:50:06;;;;;;;;;;;;;;;5.71;94.08;98915.13;348050;28;3313;-84
2022/12/13 00:50:16;;;;;;;;;;;;;;;5.69;93.88;98918.63;350562;28;1275;-84
2022/12/13 00:50:26;;;;;;;;;;;;;;;5.71;93.70;98920.31;348515;28;1173;-84
2022/12/13 00:50:37;;;;;;;;;;;;;;;5.72;93.71;98924.63;347276;28;1257;-84
2022/12/13 00:50:47;;;;;;;;;;;;;;;5.74;94.42;98920.22;350140;28;1175;-84
2022/12/13 00:50:57;;;;;;;;;;;;;;;5.74;93.94;98923.66;347309;28;1234;-84
2022/12/13 00:51:08;;;;;;;;;;;;;;;5.72;93.91;98922.03;350054;28;872;-84
2022/12/13 00:51:18;;;;;;;;;;;;;;;5.69;94.11;98923.81;349632;28;1293;-84
2022/12/13 00:51:28;;;;;;;;;;;;;;;5.71;93.92;98923.78;348708;28;843;-84
2022/12/13 00:51:39;;;;;;;;;;;;;;;5.73;94.50;98928.91;349350;28;1216;-84
2022/12/13 00:51:49;;;;;;;;;;;;;;;5.74;93.97;98921.06;350030;28;1211;-84
2022/12/13 00:51:59;;;;;;;;;;;;;;;5.75;94.01;98919.31;351277;28;1351;-84
2022/12/13 00:52:10;;;;;;;;;;;;;;;5.75;94.12;98919.31;354144;28;1302;-84
2022/12/13 00:52:20;;;;;;;;;;;;;;;5.74;93.84;98915.03;351262;28;1289;-84
2022/12/13 00:52:30;;;;;;;;;;;;;;;5.69;94.24;98918.63;349835;28;1378;-85
2022/12/13 00:52:41;;;;;;;;;;;;;;;5.67;94.13;98915.22;349964;28;922;-84
2022/12/13 00:52:51;;;;;;;;;;;;;;;5.68;93.81;98919.53;350035;28;1445;-84
2022/12/13 00:53:01;;;;;;;;;;;;;;;5.68;94.22;98922.13;347288;28;1184;-84
2022/12/13 00:53:11;;;;;;;;;;;;;;;5.71;94.12;98920.31;348394;28;1006;-84
2022/12/13 00:53:21;;;;;;;;;;;;;;;5.69;94.28;98922.97;350840;28;1178;-84
2022/12/13 00:53:32;;;;;;;;;;;;;;;5.65;94.10;98917.03;348610;28;1170;-84
2022/12/13 00:53:42;;;;;;;;;;;;;;;5.63;93.77;98918.81;348358;28;1300;-84
2022/12/13 00:53:52;;;;;;;;;;;;;;;5.62;93.75;98919.75;348321;28;1175;-84
2022/12/13 00:54:03;;;;;;;;;;;;;;;5.64;93.86;98919.66;348608;28;1236;-84
2022/12/13 00:54:13;;;;;;;;;;;;;;;5.62;93.93;98914.56;345624;28;1218;-84
2022/12/13 00:54:23;;;;;;;;;;;;;;;5.63;93.95;98924.00;347050;28;1323;-83
2022/12/13 00:54:33;;;;;;;;;;;;;;;5.63;94.14;98924.00;345664;28;1332;-84
2022/12/13 00:54:43;;;;;;;;;;;;;;;5.63;94.29;98915.41;349835;28;1234;-84
2022/12/13 00:54:54;;;;;;;;;;;;;;;5.62;94.03;98918.91;346347;28;1275;-84
2022/12/13 00:55:04;;;;;;;;;;;;;;;5.62;94.09;98917.16;346866;28;1287;-84
2022/12/13 00:55:14;;;;;;;;;;;;;;;5.63;93.78;98918.81;348376;28;1046;-84
2022/12/13 00:55:25;;;;;;;;;;;;;;;5.64;93.87;98920.50;348124;28;1291;-84
2022/12/13 00:55:39;;;;;;;;;;;;;;;5.65;94.03;98923.97;346935;28;1207;-83
2022/12/13 00:55:49;;;;;;;;;;;;;;;5.66;94.28;98923.91;345568;28;1523;-84
2022/12/13 00:55:59;;;;;;;;;;;;;;;5.66;94.50;98923.91;345951;28;1229;-84
2022/12/13 00:56:11;;;;;;;;;;;;;;;5.66;93.92;98918.72;348977;28;1229;-84
2022/12/13 00:56:24;;;;;;;;;;;;;;;5.66;94.00;98923.91;346848;28;1472;-84
2022/12/13 00:56:35;;;;;;;;;;;;;;;5.65;94.47;98919.63;346961;28;884;-84
2022/12/13 00:56:45;;;;;;;;;;;;;;;5.65;94.07;98917.03;348353;28;1242;-84
2022/12/13 00:56:56;;;;;;;;;;;;;;;5.66;94.42;98918.72;348049;28;1243;-84
2022/12/13 00:57:06;;;;;;;;;;;;;;;5.64;94.04;98917.91;347763;28;1325;-84
2022/12/13 00:57:16;;;;;;;;;;;;;;;5.63;94.09;98918.81;342974;28;1181;-84
2022/12/13 00:57:26;;;;;;;;;;;;;;;5.64;93.86;98920.50;346383;28;1493;-84
2022/12/13 00:57:37;;;;;;;;;;;;;;;5.64;94.17;98915.31;347343;28;1155;-84
2022/12/13 00:57:47;;;;;;;;;;;;;;;5.65;94.29;98922.22;345887;28;761;-84
2022/12/13 00:57:57;;;;;;;;;;;;;;;5.65;94.23;98922.22;346463;28;1902;-84
2022/12/13 00:58:07;;;;;;;;;;;;;;;5.65;94.32;98917.03;345439;28;1370;-84
2022/12/13 00:58:18;;;;;;;;;;;;;;;5.65;94.25;98917.03;346093;28;1229;-84
2022/12/13 00:58:28;;;;;;;;;;;;;;;5.62;94.25;98919.75;344236;28;1320;-84
2022/12/13 00:58:38;;;;;;;;;;;;;;;5.62;94.72;98917.16;341214;28;3030;-84
2022/12/13 00:58:49;;;;;;;;;;;;;;;5.62;94.27;98921.50;341752;28;3269;-84
2022/12/13 00:58:59;;;;;;;;;;;;;;;5.63;94.60;98918.00;338926;29;1215;-84
2022/12/13 00:59:11;;;;;;;;;;;;;;;5.62;94.77;98927.53;341300;28;1752;-84
2022/12/13 00:59:21;;;;;;;;;;;;;;;5.61;95.00;98914.59;340709;28;1705;-84
2022/12/13 00:59:32;;;;;;;;;;;;;;;5.62;95.13;98927.53;340266;29;1370;-84
2022/12/13 00:59:42;;;;;;;;;;;;;;;5.60;95.16;98921.53;338250;29;1981;-84
2022/12/13 00:59:52;;;;;;;;;;;;;;;5.62;94.99;98916.31;338883;29;1916;-84
2022/12/13 01:00:03;;;;;;;;;;;;;;;5.61;95.08;98920.66;341004;29;1321;-84
2022/12/13 01:00:13;;;;;;;;;;;;;;;5.62;95.44;98922.34;335085;29;1301;-84
2022/12/13 01:00:24;;;;;;;;;;;;;;;5.61;94.98;98920.66;337464;29;1535;-84
2022/12/13 01:00:34;;;;;;;;;;;;;;;5.61;94.96;98920.66;337944;29;1321;-84
2022/12/13 01:00:45;;;;;;;;;;;;;;;5.62;94.88;98918.91;338902;29;1277;-84
2022/12/13 01:01:05;;;;;;;;;;;;;;;5.62;95.13;98927.53;333110;29;1244;-84
2022/12/13 01:01:15;;;;;;;;;;;;;;;5.61;95.60;98915.44;332648;29;874;-84
2022/12/13 01:01:26;;;;;;;;;;;;;;;5.62;95.23;98914.56;332827;29;2283;-84
2022/12/13 01:01:37;;;;;;;;;;;;;;;5.63;95.82;98918.81;327943;29;2497;-84
2022/12/13 01:01:47;;;;;;;;;;;;;;;5.62;96.01;98919.75;322774;30;1244;-84
2022/12/13 01:01:57;;;;;;;;;;;;;;;5.62;95.85;98926.69;322094;30;2274;-84
2022/12/13 01:02:07;;;;;;;;;;;;;;;5.61;95.78;98920.66;324389;30;2114;-84
2022/12/13 01:02:18;;;;;;;;;;;;;;;5.62;95.91;98922.34;326361;30;1279;-84
2022/12/13 01:02:28;;;;;;;;;;;;;;;5.62;95.71;98922.34;322505;30;2316;-84
2022/12/13 01:02:40;;;;;;;;;;;;;;;5.63;95.58;98924.00;319498;30;1935;-84
2022/12/13 01:02:53;;;;;;;;;;;;;;;5.63;95.86;98924.00;321609;30;1329;-84